createdAt,value
2022-08-05T00:04:28.695Z,1.58
2022-08-05T00:14:31.546Z,1.10
2022-08-05T00:24:33.208Z,1.17
2022-08-05T00:34:53.354Z,1.60
2022-08-05T00:44:56.834Z,1.13
2022-08-05T00:54:58.408Z,1.40
2022-08-05T01:05:01.060Z,1.30
2022-08-05T01:15:35.319Z,1.13
2022-08-05T01:26:15.814Z,1.27
2022-08-05T01:36:18.282Z,1.15
2022-08-05T01:46:41.463Z,1.25
2022-08-05T01:58:18.740Z,1.30
2022-08-05T02:07:07.530Z,1.38
2022-08-05T02:17:29.790Z,0.97
2022-08-05T02:27:58.423Z,1.27
2022-08-05T02:38:02.421Z,1.20
2022-08-05T02:48:11.633Z,1.25
2022-08-05T02:58:16.305Z,1.05
2022-08-05T03:08:27.024Z,1.20
2022-08-05T03:18:31.505Z,0.90
2022-08-05T03:28:33.358Z,1.08
2022-08-05T03:38:40.680Z,1.08
2022-08-05T03:48:45.358Z,1.27
2022-08-05T03:58:49.432Z,1.10
2022-08-05T04:08:53.346Z,0.88
2022-08-05T04:18:57.769Z,1.08
2022-08-05T04:29:00.528Z,1.20
2022-08-05T04:39:08.956Z,1.20
2022-08-05T04:49:14.542Z,1.10
2022-08-05T04:59:24.131Z,1.20
2022-08-05T05:09:38.517Z,1.10
2022-08-05T05:19:44.094Z,1.10
2022-08-05T05:30:04.272Z,1.00
2022-08-05T05:40:07.655Z,1.10
2022-08-05T05:50:10.603Z,1.25
2022-08-05T06:00:20.673Z,1.30
2022-08-05T06:10:36.197Z,1.10
2022-08-05T06:20:38.280Z,1.10
2022-08-05T06:30:39.917Z,1.13
2022-08-05T06:40:44.457Z,1.15
2022-08-05T06:50:46.350Z,1.10
2022-08-05T07:00:52.092Z,1.10
2022-08-05T07:10:54.093Z,1.55
2022-08-05T07:20:55.841Z,1.48
2022-08-05T07:30:57.373Z,1.20
2022-08-05T07:41:01.469Z,1.20
2022-08-05T07:51:23.742Z,1.20
2022-08-05T08:01:41.659Z,1.50
2022-08-05T08:12:01.342Z,1.30
2022-08-05T08:22:09.002Z,1.25
2022-08-05T08:32:10.822Z,1.63
2022-08-05T08:42:50.680Z,1.52
2022-08-05T08:52:35.676Z,1.30
2022-08-05T09:02:39.747Z,1.52
2022-08-05T09:12:41.404Z,1.40
2022-08-05T09:23:05.564Z,1.00
2022-08-05T09:33:09.730Z,1.10
2022-08-05T09:43:27.059Z,1.02
2022-08-05T09:53:54.586Z,1.10
2022-08-05T10:04:03.539Z,1.08
2022-08-05T10:14:32.213Z,1.00
2022-08-05T10:24:34.049Z,0.80
2022-08-05T10:34:41.448Z,1.20
2022-08-05T10:44:46.996Z,0.80
2022-08-05T10:55:02.195Z,0.90
2022-08-05T11:15:58.961Z,0.90
2022-08-05T11:26:28.129Z,0.80
2022-08-05T11:36:44.330Z,0.70
2022-08-05T11:47:09.403Z,0.68
2022-08-05T11:57:25.230Z,0.50
2022-08-05T12:08:03.248Z,0.60
2022-08-05T12:18:03.785Z,0.60
2022-08-05T12:28:06.136Z,0.43
2022-08-05T12:38:07.662Z,0.38
2022-08-05T12:48:27.758Z,0.40
2022-08-05T12:58:50.508Z,0.50
2022-08-05T13:08:55.501Z,0.47
2022-08-05T13:19:01.533Z,0.40
2022-08-05T13:29:05.201Z,0.40
2022-08-05T13:39:08.647Z,0.60
2022-08-05T13:49:29.636Z,0.40
2022-08-05T13:59:38.011Z,0.40
2022-08-05T14:09:59.237Z,0.35
2022-08-05T14:20:04.588Z,0.30
2022-08-05T14:30:20.149Z,0.30
2022-08-05T14:40:24.509Z,0.20
2022-08-05T14:50:26.219Z,0.40
2022-08-05T15:00:29.517Z,0.30
2022-08-05T15:10:31.197Z,0.30
2022-08-05T15:20:33.510Z,0.30
2022-08-05T15:30:36.825Z,0.30
2022-08-05T15:40:41.001Z,0.25
2022-08-05T15:51:03.637Z,0.30
2022-08-05T16:01:17.326Z,0.30
2022-08-05T16:11:21.000Z,0.20
2022-08-05T16:22:00.344Z,0.80
2022-08-05T16:32:02.774Z,1.48
2022-08-05T16:42:15.414Z,1.10
2022-08-05T16:52:29.081Z,1.15
2022-08-05T17:02:35.198Z,1.40
2022-08-05T17:12:51.850Z,1.40
2022-08-05T17:22:55.223Z,1.20
2022-08-05T17:32:57.114Z,1.33
2022-08-05T17:42:58.722Z,2.83
2022-08-05T17:53:04.997Z,2.67
2022-08-05T18:03:06.666Z,1.85
2022-08-05T18:13:12.538Z,1.75
2022-08-05T18:23:14.714Z,1.58
2022-08-05T18:33:17.505Z,1.67
2022-08-05T18:43:24.806Z,1.75
2022-08-05T18:53:34.681Z,1.40
2022-08-05T19:03:55.041Z,1.27
2022-08-05T19:14:00.859Z,1.10
2022-08-05T19:24:12.305Z,1.02
2022-08-05T19:34:14.400Z,1.20
2022-08-05T19:44:20.348Z,0.90
2022-08-05T19:54:29.675Z,1.10
2022-08-05T20:04:33.225Z,0.80
2022-08-05T20:14:35.149Z,0.88
2022-08-05T20:24:36.699Z,1.08
2022-08-05T20:34:39.478Z,1.13
2022-08-05T20:44:42.854Z,0.88
2022-08-05T20:54:59.579Z,0.80
2022-08-05T21:05:05.540Z,1.10
2022-08-05T21:15:11.061Z,0.77
2022-08-05T21:25:12.684Z,0.60
2022-08-05T21:35:18.352Z,0.60
2022-08-05T21:45:56.225Z,0.73
2022-08-05T21:56:05.543Z,0.57
2022-08-05T22:06:11.344Z,0.57
2022-08-05T22:16:42.165Z,0.85
2022-08-05T22:26:53.066Z,0.70
2022-08-05T22:36:55.790Z,0.55
2022-08-05T22:46:57.505Z,0.60
2022-08-05T22:56:59.141Z,0.60
2022-08-05T23:07:00.717Z,0.50
2022-08-05T23:17:24.400Z,1.02
2022-08-05T23:27:57.716Z,0.50
2022-08-05T23:37:56.401Z,0.35
2022-08-05T23:47:59.407Z,0.70
2022-08-05T23:58:04.600Z,0.50
